Thunder radar more information blitzortung!


Löydät sääaseman tiedot myös:

European Weather Network

Finland Weather Exchange

Weather Underground

AWEKAS



Weather Underground säähistoriasivu

Päivittäin yhteenveto Elokuu 28, 2017 Yksiköt:  Englantilaiset    Metriset   Molemmat
« Edellinen Päivä
Seuraava Päivä »
Päivittäin Viikoittain Kuukausittain Vuosittain Mukautettu
  Korkea: Matala: Keskiarvo:
Lämpötila: TemperatureC °F 0.8 °F 8.7 °F
Kastepiste: DewpointC °F 0.3 °F 5.3 °F
Kosteus: Humidity % 55 % 80 %
Tuulen nopeus: WindSpeedKMH mph 0.0 mph 0.7 mph
Tuulenpuuska: WindSpeedGustKMH mph - -
Tuuli:- - SSW
Ilmanpaine: PressurehPa in 1013.1 in -
Sade: 0.0 in    
Historical Graphs
 
 
Taulukkotiedot Elokuu 28, 2017
Aika Lämpötila Kastepiste Ilmanpaine Tuuli Tuulen nopeus Tuulenpuuska Kosteus Sademäärä (tunneittain)
TemperatureC °F DewpointC °F PressurehPa in Calm     Humidity % HourlyPrecipMM in
00:00 4.4 °F 3.7 °F 1015.5 in Calm     95 % 0.0 in
00:15 4.3 °F 3.5 °F 1015.5 in Calm     95 % 0.0 in
00:30 4.1 °F 3.4 °F 1015.5 in Calm     95 % 0.0 in
00:45 3.9 °F 3.2 °F 1015.5 in Calm     95 % 0.0 in
01:00 3.8 °F 3.1 °F 1015.5 in Calm     95 % 0.0 in
01:15 3.6 °F 2.9 °F 1015.8 in Calm     95 % 0.0 in
01:30 3.5 °F 2.8 °F 1015.8 in Calm     95 % 0.0 in
01:45 3.3 °F 2.6 °F 1015.8 in Calm     95 % 0.0 in
02:00 3.2 °F 2.5 °F 1015.8 in Calm     95 % 0.0 in
02:15 3.1 °F 2.5 °F 1015.8 in Calm     96 % 0.0 in
02:30 2.9 °F 2.2 °F 1015.8 in Calm     95 % 0.0 in
02:45 2.7 °F 2.0 °F 1015.8 in Calm     95 % 0.0 in
03:00 2.4 °F 1.7 °F 1015.8 in Calm     95 % 0.0 in
03:15 2.2 °F 1.4 °F 1016.1 in Calm     95 % 0.0 in
03:30 2.0 °F 1.3 °F 1015.8 in Calm     95 % 0.0 in
03:45 1.8 °F 1.1 °F 1016.1 in Calm     95 % 0.0 in
04:00 1.6 °F 0.9 °F 1016.1 in Calm     95 % 0.0 in
04:15 1.6 °F 1.0 °F 1016.1 in Calm     96 % 0.0 in
04:30 1.4 °F 0.7 °F 1016.1 in Calm     95 % 0.0 in
04:45 1.2 °F 0.5 °F 1016.1 in Calm     95 % 0.0 in
05:00 1.1 °F 0.5 °F 1016.1 in Calm     96 % 0.0 in
05:15 1.0 °F 0.4 °F 1016.1 in Calm     96 % 0.0 in
05:30 0.9 °F 0.4 °F 1016.1 in Calm     96 % 0.0 in
05:45 0.8 °F 0.3 °F 1016.1 in Calm     96 % 0.0 in
06:00 0.9 °F 0.4 °F 1016.1 in Calm     96 % 0.0 in
06:15 0.9 °F 0.4 °F 1016.1 in Calm     96 % 0.0 in
06:30 1.0 °F 0.4 °F 1016.1 in Calm     96 % 0.0 in
06:45 1.1 °F 0.5 °F 1016.5 in Calm     96 % 0.0 in
07:00 1.1 °F 0.5 °F 1016.5 in Calm     96 % 0.0 in
07:15 1.0 °F 0.4 °F 1016.5 in Calm     96 % 0.0 in
07:30 0.9 °F 0.4 °F 1016.5 in Calm     96 % 0.0 in
07:45 1.1 °F 0.5 °F 1016.5 in Calm     96 % 0.0 in
08:00 1.1 °F 0.5 °F 1016.5 in Calm     96 % 0.0 in
08:15 1.4 °F 1.0 °F 1016.5 in Calm     97 % 0.0 in
08:30 1.9 °F 1.5 °F 1016.5 in Calm     97 % 0.0 in
08:45 2.5 °F 2.1 °F 1016.5 in Calm     97 % 0.0 in
09:00 3.5 °F 3.1 °F 1016.5 in Calm     97 % 0.0 in
09:15 4.4 °F 4.1 °F 1016.5 in Calm     98 % 0.0 in
09:30 5.5 °F 5.2 °F 1016.5 in Calm     98 % 0.0 in
09:45 6.3 °F 6.0 °F 1016.5 in Calm   1.6 mph 98 % 0.0 in
10:00 7.7 °F 7.4 °F 1016.5 in Calm   4.8 mph 98 % 0.0 in
10:15 8.7 °F 8.4 °F 1016.5 in Calm   3.2 mph 98 % 0.0 in
10:30 9.7 °F 7.8 °F 1016.8 in Calm   3.2 mph 88 % 0.0 in
10:45 10.6 °F 7.1 °F 1016.5 in SW 3.2 mph 8.0 mph 79 % 0.0 in
11:00 11.4 °F 7.4 °F 1016.8 in Calm   4.8 mph 75 % 0.0 in
11:15 12.1 °F 7.2 °F 1016.5 in SSE 1.6 mph 9.7 mph 72 % 0.0 in
11:30 12.5 °F 7.0 °F 1016.5 in Calm   6.4 mph 69 % 0.0 in
11:45 12.7 °F 6.9 °F 1016.5 in SSW 1.6 mph 8.0 mph 68 % 0.0 in
12:00 13.1 °F 6.8 °F 1016.5 in South 1.6 mph 8.0 mph 66 % 0.0 in
12:15 13.2 °F 7.0 °F 1016.5 in SSW 1.6 mph 6.4 mph 66 % 0.0 in
12:30 13.8 °F 7.4 °F 1016.1 in Calm   6.4 mph 65 % 0.0 in
12:45 14.0 °F 7.7 °F 1016.1 in Calm   6.4 mph 66 % 0.0 in
13:00 14.1 °F 7.2 °F 1015.8 in SW 1.6 mph 8.0 mph 63 % 0.0 in
13:15 14.3 °F 8.0 °F 1015.8 in SSW 3.2 mph 11.3 mph 66 % 0.0 in
13:30 14.6 °F 7.4 °F 1015.8 in South 1.6 mph 11.3 mph 62 % 0.0 in
13:45 15.2 °F 7.4 °F 1015.8 in SSE 1.6 mph 9.7 mph 60 % 0.0 in
14:15 15.4 °F 7.7 °F 1015.8 in South 3.2 mph 8.0 mph 60 % 0.0 in
14:30 14.7 °F 8.2 °F 1015.8 in Calm   8.0 mph 65 % 0.0 in
14:45 14.9 °F 8.4 °F 1015.5 in Calm   3.2 mph 65 % 0.0 in
15:00 15.4 °F 8.1 °F 1015.5 in Calm   6.4 mph 62 % 0.0 in
15:15 15.6 °F 7.4 °F 1015.5 in SW 1.6 mph 12.9 mph 58 % 0.0 in
15:30 15.9 °F 7.2 °F 1015.5 in SW 3.2 mph 12.9 mph 56 % 0.0 in
15:45 16.3 °F 8.0 °F 1015.1 in Calm   9.7 mph 58 % 0.0 in
16:00 16.3 °F 7.5 °F 1015.1 in South 4.8 mph 12.9 mph 56 % 0.0 in
16:15 16.2 °F 7.1 °F 1014.8 in SSE 1.6 mph 8.0 mph 55 % 0.0 in
16:30 16.4 °F 7.6 °F 1014.8 in South 3.2 mph 11.3 mph 56 % 0.0 in
16:45 16.5 °F 7.9 °F 1014.4 in SSW 3.2 mph 9.7 mph 57 % 0.0 in
17:00 16.7 °F 8.2 °F 1014.4 in South 1.6 mph 11.3 mph 57 % 0.0 in
17:15 16.7 °F 7.9 °F 1014.4 in South 1.6 mph 11.3 mph 56 % 0.0 in
17:30 16.9 °F 8.6 °F 1014.4 in South 1.6 mph 9.7 mph 58 % 0.0 in
17:45 16.6 °F 8.3 °F 1014.4 in SSW 3.2 mph 9.7 mph 58 % 0.0 in
18:00 16.2 °F 8.4 °F 1014.1 in SSW 1.6 mph 9.7 mph 60 % 0.0 in
18:15 16.1 °F 8.3 °F 1014.1 in South 1.6 mph 8.0 mph 60 % 0.0 in
18:30 15.9 °F 8.2 °F 1014.1 in SSW 1.6 mph 8.0 mph 60 % 0.0 in
18:45 15.6 °F 8.1 °F 1014.1 in SSW 3.2 mph 11.3 mph 61 % 0.0 in
19:00 15.3 °F 8.6 °F 1013.8 in SSW 3.2 mph 11.3 mph 64 % 0.0 in
19:15 15.1 °F 8.8 °F 1013.8 in SSW 3.2 mph 11.3 mph 66 % 0.0 in
19:30 14.8 °F 9.0 °F 1013.8 in SSW 3.2 mph 14.5 mph 68 % 0.0 in
19:45 14.4 °F 9.0 °F 1013.8 in SSW 1.6 mph 8.0 mph 70 % 0.0 in
20:00 13.9 °F 9.4 °F 1013.8 in Calm     74 % 0.0 in
20:15 13.2 °F 9.3 °F 1013.8 in Calm   3.2 mph 77 % 0.0 in
20:30 12.6 °F 9.2 °F 1013.4 in Calm     80 % 0.0 in
20:45 12.1 °F 8.7 °F 1013.4 in Calm   1.6 mph 80 % 0.0 in
21:00 11.7 °F 8.7 °F 1013.4 in Calm     82 % 0.0 in
21:15 11.2 °F 8.6 °F 1013.8 in Calm   6.4 mph 84 % 0.0 in
21:30 11.0 °F 8.4 °F 1013.4 in Calm   3.2 mph 84 % 0.0 in
21:45 10.7 °F 8.2 °F 1013.4 in Calm   1.6 mph 85 % 0.0 in
22:00 10.5 °F 8.3 °F 1013.4 in Calm   3.2 mph 86 % 0.0 in
22:15 10.5 °F 8.3 °F 1013.4 in Calm   4.8 mph 86 % 0.0 in
22:30 10.3 °F 8.1 °F 1013.1 in Calm   1.6 mph 86 % 0.0 in
22:45 10.2 °F 8.1 °F 1013.1 in Calm   1.6 mph 87 % 0.0 in
23:00 10.0 °F 8.1 °F 1013.1 in Calm   11.3 mph 88 % 0.0 in
23:15 10.1 °F 8.0 °F 1013.1 in South 1.6 mph 9.7 mph 87 % 0.0 in
23:30 10.2 °F 7.9 °F 1013.1 in Calm   8.0 mph 86 % 0.0 in
23:45 10.1 °F 7.8 °F 1013.1 in Calm   6.4 mph 86 % 0.0 in
Esan sääasema
Terveisin Weather Underground - 2.75 mb

Alkuperäinen skripti  Jim McMurry - jmcmurry@mwt.net Sovitettu myös templatelle  Wim van der Kuil - Leuven-Template.eu

Laitteet joita käytämme:

Sääasema
Davis VP2

Sääasemaohjelma
Cumulus

Sääaseman tietokone
Asus EeePC

Palveluntarjoaja
Suncomet

Davis VP2

Cumulus

Asus EeePC

Suncomet